Time;durP1;ratioP1;P1;durP2;ratioP2;P2;SDS_P1;SDS_P2;PMS_P1;PMS_P2;Temp;Humidity;BMP_temperature;BMP_pressure;BME280_temperature;BME280_humidity;BME280_pressure;Samples;Min_cycle;Max_cycle;Signal;HPM_P1;HPM_P2
2022/12/15 00:38:44;;;;;;;;;;;0.20;99.90;;;;;;5044465;28;19931;-76
2022/12/15 00:41:13;;;;;;;;;;;0.20;99.90;;;;;;5041435;28;19929;-76
2022/12/15 00:43:39;;;;;;;;;;;0.20;99.90;;;;;;5042481;28;19944;-76
2022/12/15 00:48:51;;;;;;;;;;;0.10;99.90;;;;;;5040113;28;19971;-77
2022/12/15 00:51:17;;;;;;;;;;;0.20;99.90;;;;;;5042324;28;19933;-77
2022/12/15 01:21:09;;;;;;;;;;;0.20;99.90;;;;;;5046512;28;19974;-76
2022/12/15 01:23:37;;;;;;;;;;;0.10;99.90;;;;;;5047337;28;19935;-76
2022/12/15 01:26:04;;;;;;;;;;;0.10;99.90;;;;;;5043504;28;19933;-76
2022/12/15 01:28:32;;;;;;;;;;;0.20;99.90;;;;;;5048870;28;20284;-77
2022/12/15 01:30:59;;;;;;;;;;;0.10;99.90;;;;;;5045416;28;19932;-76
2022/12/15 01:33:25;;;;;;;;;;;0.10;99.90;;;;;;5045483;28;19940;-77
2022/12/15 01:35:56;;;;;;;;;;;0.10;99.90;;;;;;5044456;28;19934;-75
2022/12/15 01:38:22;;;;;;;;;;;0.20;99.90;;;;;;5041051;28;19963;-77
2022/12/15 01:40:51;;;;;;;;;;;0.10;99.90;;;;;;5040892;28;19933;-76
2022/12/15 01:43:19;;;;;;;;;;;0.10;99.90;;;;;;5044356;28;19951;-77
2022/12/15 01:45:49;;;;;;;;;;;0.10;99.90;;;;;;5043424;28;19935;-76
2022/12/15 01:48:19;;;;;;;;;;;0.10;99.90;;;;;;5043507;28;19929;-76
2022/12/15 01:50:48;;;;;;;;;;;0.10;99.90;;;;;;5044037;28;19950;-76
2022/12/15 01:53:15;;;;;;;;;;;0.10;99.90;;;;;;5043583;28;19929;-77
2022/12/15 01:55:44;;;;;;;;;;;0.10;99.90;;;;;;5043400;28;19932;-77
2022/12/15 01:58:12;;;;;;;;;;;0.10;99.90;;;;;;5039494;28;19928;-76
2022/12/15 02:00:39;;;;;;;;;;;0.10;99.90;;;;;;5035791;28;19936;-76
2022/12/15 02:03:07;;;;;;;;;;;0.10;99.90;;;;;;5041269;28;19982;-76
2022/12/15 02:05:35;;;;;;;;;;;0.10;99.90;;;;;;5044378;28;19928;-77
2022/12/15 02:08:02;;;;;;;;;;;0.10;99.90;;;;;;5042813;28;19929;-77
2022/12/15 02:10:33;;;;;;;;;;;0.10;99.90;;;;;;5046027;28;20575;-76
2022/12/15 02:13:05;;;;;;;;;;;0.10;99.90;;;;;;5044286;28;20428;-77
2022/12/15 02:15:37;;;;;;;;;;;0.10;99.90;;;;;;5042792;28;19929;-77
2022/12/15 02:18:05;;;;;;;;;;;0.10;99.90;;;;;;5041353;28;20400;-76
2022/12/15 02:20:40;;;;;;;;;;;0.10;99.90;;;;;;5045927;28;19929;-77
2022/12/15 02:23:24;;;;;;;;;;;0.10;99.90;;;;;;5043922;28;19936;-77
2022/12/15 02:26:01;;;;;;;;;;;0.10;99.90;;;;;;5022809;28;19928;-76
2022/12/15 02:28:32;;;;;;;;;;;0.10;99.90;;;;;;5041336;28;20105;-77
2022/12/15 02:33:49;;;;;;;;;;;0.10;99.90;;;;;;5042609;28;20408;-77
2022/12/15 02:36:17;;;;;;;;;;;0.10;99.90;;;;;;5043872;28;19928;-76
2022/12/15 02:38:43;;;;;;;;;;;0.10;99.90;;;;;;5043936;28;19933;-77
2022/12/15 02:41:25;;;;;;;;;;;0.10;99.90;;;;;;5042257;28;19933;-76
2022/12/15 02:43:51;;;;;;;;;;;0.10;99.90;;;;;;5041986;28;19929;-77
2022/12/15 02:46:25;;;;;;;;;;;0.10;99.90;;;;;;5040890;28;19940;-77
2022/12/15 02:48:58;;;;;;;;;;;0.10;99.90;;;;;;5041733;28;19947;-76
2022/12/15 02:51:31;;;;;;;;;;;0.10;99.90;;;;;;5039273;28;19924;-76
2022/12/15 02:54:05;;;;;;;;;;;0.10;99.90;;;;;;5040697;28;19929;-76
2022/12/15 02:56:37;;;;;;;;;;;0.10;99.90;;;;;;5038619;28;20393;-76
2022/12/15 02:59:09;;;;;;;;;;;0.10;99.90;;;;;;5038330;28;19929;-77
2022/12/15 03:01:40;;;;;;;;;;;0.10;99.90;;;;;;5035947;28;19929;-77
2022/12/15 03:04:08;;;;;;;;;;;0.10;99.90;;;;;;5042495;28;19939;-77
2022/12/15 03:06:35;;;;;;;;;;;0.10;99.90;;;;;;5042485;28;19929;-77
2022/12/15 03:09:01;;;;;;;;;;;0.10;99.90;;;;;;5040716;28;19929;-76
2022/12/15 03:11:28;;;;;;;;;;;0.00;99.90;;;;;;5040111;28;19967;-76
2022/12/15 03:13:55;;;;;;;;;;;0.10;99.90;;;;;;5042461;28;19929;-77
2022/12/15 03:16:21;;;;;;;;;;;0.10;99.90;;;;;;5039820;28;20047;-76
2022/12/15 03:18:50;;;;;;;;;;;0.10;99.90;;;;;;5042959;28;19935;-76
2022/12/15 03:21:16;;;;;;;;;;;0.10;99.90;;;;;;5041769;28;19925;-76
2022/12/15 03:23:43;;;;;;;;;;;0.10;99.90;;;;;;5039803;28;19951;-76
2022/12/15 03:26:10;;;;;;;;;;;0.10;99.90;;;;;;5041966;28;20010;-76
2022/12/15 03:28:37;;;;;;;;;;;0.10;99.90;;;;;;5044943;28;19928;-77
2022/12/15 03:31:04;;;;;;;;;;;0.10;99.90;;;;;;5039592;28;19929;-77
2022/12/15 03:33:32;;;;;;;;;;;0.00;99.90;;;;;;5040008;28;19939;-77
2022/12/15 03:35:59;;;;;;;;;;;0.00;99.90;;;;;;5041695;28;19932;-77
2022/12/15 03:38:26;;;;;;;;;;;0.10;99.90;;;;;;5043249;28;19928;-77
2022/12/15 03:40:53;;;;;;;;;;;0.10;99.90;;;;;;5040701;28;19933;-76
2022/12/15 03:43:19;;;;;;;;;;;0.00;99.90;;;;;;5040829;28;19929;-76
2022/12/15 03:45:46;;;;;;;;;;;0.00;99.90;;;;;;5042892;28;19939;-77
2022/12/15 03:48:12;;;;;;;;;;;0.00;99.90;;;;;;5042341;28;19939;-78
2022/12/15 03:50:39;;;;;;;;;;;0.10;99.90;;;;;;5040153;28;20801;-76
2022/12/15 03:53:07;;;;;;;;;;;0.00;99.90;;;;;;5042448;28;19976;-77
2022/12/15 03:55:35;;;;;;;;;;;0.10;99.90;;;;;;5040214;28;19956;-76
2022/12/15 03:58:01;;;;;;;;;;;0.00;99.90;;;;;;5042524;28;19991;-77
2022/12/15 04:00:28;;;;;;;;;;;0.00;99.90;;;;;;5035101;28;20818;-77
2022/12/15 04:02:55;;;;;;;;;;;0.00;99.90;;;;;;5040436;28;20709;-76
2022/12/15 04:05:24;;;;;;;;;;;0.00;99.90;;;;;;5041586;28;19932;-77
2022/12/15 04:07:51;;;;;;;;;;;0.00;99.90;;;;;;5040551;28;20001;-76
2022/12/15 04:10:19;;;;;;;;;;;0.00;99.90;;;;;;5040111;28;19937;-77
2022/12/15 04:12:45;;;;;;;;;;;0.00;99.90;;;;;;5040707;28;19929;-77
2022/12/15 04:15:12;;;;;;;;;;;0.00;99.90;;;;;;5040182;28;19935;-78
2022/12/15 04:17:39;;;;;;;;;;;0.00;99.90;;;;;;5041040;28;19925;-76
2022/12/15 04:20:09;;;;;;;;;;;0.00;99.90;;;;;;5038095;28;19933;-76
2022/12/15 04:22:35;;;;;;;;;;;0.10;99.90;;;;;;5035614;28;19929;-75
2022/12/15 05:33:36;;;;;;;;;;;0.00;99.90;;;;;;5043207;28;20402;-75
2022/12/15 05:36:03;;;;;;;;;;;0.00;99.90;;;;;;5040392;28;19934;-76
2022/12/15 05:38:29;;;;;;;;;;;0.00;99.90;;;;;;5041653;28;19932;-76
2022/12/15 05:40:57;;;;;;;;;;;0.00;99.90;;;;;;5042259;28;19952;-76
2022/12/15 05:43:23;;;;;;;;;;;0.00;99.90;;;;;;5042521;28;19940;-76
2022/12/15 05:45:50;;;;;;;;;;;0.00;99.90;;;;;;5038515;28;19930;-75
2022/12/15 05:48:16;;;;;;;;;;;0.00;99.90;;;;;;5038460;28;20336;-75
2022/12/15 05:50:44;;;;;;;;;;;0.00;99.90;;;;;;5035235;28;19965;-75
2022/12/15 05:53:11;;;;;;;;;;;-0.10;99.90;;;;;;5040843;28;20101;-76
2022/12/15 05:55:37;;;;;;;;;;;-0.10;99.90;;;;;;5040495;28;19936;-76
2022/12/15 05:58:04;;;;;;;;;;;0.00;99.90;;;;;;5040005;28;20389;-76
2022/12/15 06:00:30;;;;;;;;;;;-0.10;99.90;;;;;;5038845;28;20469;-74
2022/12/15 06:02:57;;;;;;;;;;;0.00;99.90;;;;;;5036785;28;20278;-76
2022/12/15 06:05:24;;;;;;;;;;;0.00;99.90;;;;;;5041437;28;20365;-75
2022/12/15 06:07:52;;;;;;;;;;;0.00;99.90;;;;;;5039791;28;20536;-75
2022/12/15 06:10:18;;;;;;;;;;;-0.10;99.90;;;;;;5043883;28;19928;-75
2022/12/15 06:12:45;;;;;;;;;;;-0.10;99.90;;;;;;5043001;28;19929;-75
2022/12/15 06:15:12;;;;;;;;;;;-0.10;99.90;;;;;;5039625;28;19933;-76
2022/12/15 06:17:38;;;;;;;;;;;0.00;99.90;;;;;;5041265;28;19928;-75
2022/12/15 06:20:06;;;;;;;;;;;0.00;99.90;;;;;;5040838;28;19936;-77
2022/12/15 06:22:32;;;;;;;;;;;-0.10;99.90;;;;;;5037743;28;19928;-75
2022/12/15 06:25:00;;;;;;;;;;;-0.10;99.90;;;;;;5043095;28;19933;-76
2022/12/15 06:27:27;;;;;;;;;;;-0.10;99.90;;;;;;5043399;28;20031;-77
2022/12/15 06:29:53;;;;;;;;;;;-0.10;99.90;;;;;;5043799;28;19928;-76
2022/12/15 06:32:20;;;;;;;;;;;-0.10;99.90;;;;;;5037940;28;19925;-75
2022/12/15 06:34:47;;;;;;;;;;;-0.10;99.90;;;;;;5036717;28;20364;-77
2022/12/15 06:37:14;;;;;;;;;;;-0.10;99.90;;;;;;5039148;28;19929;-77
2022/12/15 06:39:41;;;;;;;;;;;-0.10;99.90;;;;;;5039422;28;19933;-75
2022/12/15 06:42:09;;;;;;;;;;;-0.10;99.90;;;;;;5040807;28;19925;-75
2022/12/15 06:44:35;;;;;;;;;;;-0.10;99.90;;;;;;5040030;28;19928;-76
2022/12/15 06:47:02;;;;;;;;;;;-0.10;99.90;;;;;;5036194;28;19940;-77
2022/12/15 06:49:29;;;;;;;;;;;0.00;99.90;;;;;;5035847;28;20426;-74
2022/12/15 06:51:55;;;;;;;;;;;-0.10;99.90;;;;;;5042309;28;19936;-76
2022/12/15 06:54:22;;;;;;;;;;;-0.10;99.90;;;;;;5039794;28;19932;-75
2022/12/15 06:56:49;;;;;;;;;;;-0.10;99.90;;;;;;5039337;28;19940;-76
2022/12/15 06:59:16;;;;;;;;;;;-0.10;99.90;;;;;;5037848;28;20438;-76
2022/12/15 07:01:43;;;;;;;;;;;-0.10;99.90;;;;;;5037274;28;19933;-75
2022/12/15 07:04:10;;;;;;;;;;;-0.10;99.90;;;;;;5037490;28;20336;-75
2022/12/15 07:06:37;;;;;;;;;;;-0.10;99.90;;;;;;5034079;28;19929;-75
2022/12/15 07:09:05;;;;;;;;;;;-0.10;99.90;;;;;;5042756;28;19928;-75
2022/12/15 07:11:32;;;;;;;;;;;-0.10;99.90;;;;;;5041866;28;20329;-76
2022/12/15 07:13:59;;;;;;;;;;;-0.10;99.90;;;;;;5043299;28;19936;-76
2022/12/15 07:16:27;;;;;;;;;;;-0.10;99.90;;;;;;5037979;28;19987;-76
2022/12/15 07:18:53;;;;;;;;;;;-0.10;99.90;;;;;;5038699;28;19929;-76
2022/12/15 07:21:20;;;;;;;;;;;-0.10;99.90;;;;;;5039791;28;20354;-76
2022/12/15 07:23:46;;;;;;;;;;;-0.10;99.90;;;;;;5042459;28;19925;-76
2022/12/15 07:26:13;;;;;;;;;;;-0.10;99.90;;;;;;5039383;28;19935;-76
2022/12/15 07:28:40;;;;;;;;;;;-0.10;99.90;;;;;;5036315;28;20714;-76
2022/12/15 07:31:09;;;;;;;;;;;-0.10;99.90;;;;;;5032189;28;19929;-75
2022/12/15 07:33:38;;;;;;;;;;;-0.10;99.90;;;;;;5039573;28;19936;-76
2022/12/15 07:36:07;;;;;;;;;;;-0.10;99.90;;;;;;5042539;28;19940;-76
2022/12/15 07:38:33;;;;;;;;;;;-0.10;99.90;;;;;;5039424;28;19936;-76
2022/12/15 07:41:00;;;;;;;;;;;-0.10;99.90;;;;;;5039443;28;19939;-77
2022/12/15 07:43:27;;;;;;;;;;;-0.10;99.90;;;;;;5042281;28;19991;-76
2022/12/15 07:45:54;;;;;;;;;;;-0.10;99.90;;;;;;5039833;28;19939;-76
2022/12/15 07:48:21;;;;;;;;;;;-0.10;99.90;;;;;;5039515;28;19929;-76
2022/12/15 07:50:49;;;;;;;;;;;-0.10;99.90;;;;;;5041433;28;19929;-77
2022/12/15 07:53:16;;;;;;;;;;;-0.10;99.90;;;;;;5042203;28;19928;-76
2022/12/15 07:55:42;;;;;;;;;;;-0.10;99.90;;;;;;5036722;28;19952;-75
2022/12/15 07:58:09;;;;;;;;;;;-0.10;99.90;;;;;;5039627;28;19936;-75
2022/12/15 08:00:35;;;;;;;;;;;-0.10;99.90;;;;;;5033159;28;19929;-76
2022/12/15 08:03:02;;;;;;;;;;;-0.10;99.90;;;;;;5036538;28;19940;-76
2022/12/15 08:05:29;;;;;;;;;;;-0.10;99.90;;;;;;5042422;28;20488;-76
2022/12/15 08:07:58;;;;;;;;;;;-0.10;99.90;;;;;;5042036;28;19952;-76
2022/12/15 08:10:24;;;;;;;;;;;-0.10;99.90;;;;;;5035583;28;19936;-75
2022/12/15 08:12:52;;;;;;;;;;;-0.10;99.90;;;;;;5038709;28;20094;-76
2022/12/15 08:15:18;;;;;;;;;;;-0.10;99.90;;;;;;5039003;28;20400;-76
2022/12/15 08:17:45;;;;;;;;;;;-0.10;99.90;;;;;;5039563;28;20015;-76
2022/12/15 08:20:13;;;;;;;;;;;-0.10;99.90;;;;;;5040242;28;20002;-76
2022/12/15 08:22:40;;;;;;;;;;;-0.10;99.90;;;;;;5034447;28;20423;-76
2022/12/15 08:25:09;;;;;;;;;;;-0.10;99.90;;;;;;5036269;28;19928;-75
2022/12/15 08:27:35;;;;;;;;;;;-0.10;99.90;;;;;;5044289;28;19929;-75
2022/12/15 08:30:02;;;;;;;;;;;-0.10;99.90;;;;;;5041976;28;20548;-75
2022/12/15 08:32:29;;;;;;;;;;;-0.10;99.90;;;;;;5037229;28;19936;-75
2022/12/15 08:34:55;;;;;;;;;;;-0.10;99.90;;;;;;5042992;28;19948;-77
2022/12/15 08:37:22;;;;;;;;;;;-0.10;99.90;;;;;;5041136;28;19933;-75
2022/12/15 08:39:49;;;;;;;;;;;-0.10;99.90;;;;;;5040630;28;19936;-76
2022/12/15 08:42:17;;;;;;;;;;;-0.10;99.90;;;;;;5041069;28;19933;-73
2022/12/15 08:44:43;;;;;;;;;;;-0.10;99.90;;;;;;5040402;28;19929;-75
2022/12/15 08:47:11;;;;;;;;;;;-0.10;99.90;;;;;;5037218;28;19958;-75
2022/12/15 08:49:37;;;;;;;;;;;-0.10;99.90;;;;;;5041028;28;19933;-76
2022/12/15 08:52:04;;;;;;;;;;;-0.20;99.90;;;;;;5043707;28;19928;-76
2022/12/15 08:54:31;;;;;;;;;;;-0.20;99.90;;;;;;5043012;28;19929;-77
2022/12/15 08:56:58;;;;;;;;;;;-0.10;99.90;;;;;;5044996;28;19929;-75
2022/12/15 08:59:26;;;;;;;;;;;-0.20;99.90;;;;;;5044280;28;19928;-77
2022/12/15 09:01:53;;;;;;;;;;;-0.10;99.90;;;;;;5042116;28;19939;-76
2022/12/15 09:04:19;;;;;;;;;;;-0.10;99.90;;;;;;5042889;28;19929;-77
2022/12/15 09:06:46;;;;;;;;;;;-0.20;99.90;;;;;;5040406;28;19933;-77
2022/12/15 09:09:13;;;;;;;;;;;-0.20;99.90;;;;;;5043427;28;19929;-75
2022/12/15 09:11:40;;;;;;;;;;;-0.20;99.90;;;;;;5043594;28;19956;-76
2022/12/15 09:14:06;;;;;;;;;;;-0.20;99.90;;;;;;5044486;28;19928;-76
2022/12/15 09:16:35;;;;;;;;;;;-0.20;99.90;;;;;;5038429;28;19929;-77
2022/12/15 09:19:01;;;;;;;;;;;-0.20;99.90;;;;;;5043284;28;20023;-77
2022/12/15 09:21:29;;;;;;;;;;;-0.20;99.90;;;;;;5041501;28;19929;-76
2022/12/15 09:23:59;;;;;;;;;;;-0.20;99.90;;;;;;5042412;28;19940;-76
2022/12/15 09:26:26;;;;;;;;;;;-0.20;99.90;;;;;;5042685;28;19929;-77
2022/12/15 09:28:54;;;;;;;;;;;-0.20;99.90;;;;;;5041345;28;20019;-76
2022/12/15 09:31:22;;;;;;;;;;;-0.20;99.90;;;;;;5039834;28;19936;-77
2022/12/15 09:33:50;;;;;;;;;;;-0.20;99.90;;;;;;5044104;28;19928;-77
2022/12/15 09:36:17;;;;;;;;;;;-0.20;99.90;;;;;;5046654;28;19928;-77
2022/12/15 09:38:44;;;;;;;;;;;-0.20;99.90;;;;;;5039642;28;19933;-76
2022/12/15 09:41:17;;;;;;;;;;;-0.20;99.90;;;;;;5042285;28;19929;-77
2022/12/15 09:43:49;;;;;;;;;;;-0.20;99.90;;;;;;5042089;28;19944;-76
2022/12/15 09:46:20;;;;;;;;;;;-0.20;99.90;;;;;;5038079;28;19936;-77
2022/12/15 09:48:48;;;;;;;;;;;-0.20;99.90;;;;;;5043019;28;19929;-76
2022/12/15 09:51:17;;;;;;;;;;;-0.20;99.90;;;;;;5043242;28;20095;-77
2022/12/15 09:53:45;;;;;;;;;;;-0.20;99.90;;;;;;5042752;28;20496;-76
2022/12/15 09:56:15;;;;;;;;;;;-0.20;99.90;;;;;;5038724;28;19929;-76
2022/12/15 09:58:44;;;;;;;;;;;-0.20;99.90;;;;;;5041692;28;19939;-77
2022/12/15 10:01:14;;;;;;;;;;;-0.20;99.90;;;;;;5040690;28;19950;-76
2022/12/15 10:03:49;;;;;;;;;;;-0.20;99.90;;;;;;5040819;28;20495;-77
2022/12/15 10:06:18;;;;;;;;;;;-0.20;99.90;;;;;;5040561;28;20025;-76
2022/12/15 10:08:47;;;;;;;;;;;-0.20;99.90;;;;;;5041996;28;19936;-77
2022/12/15 10:11:16;;;;;;;;;;;-0.20;99.90;;;;;;5041826;28;19929;-75
2022/12/15 10:13:46;;;;;;;;;;;-0.20;99.90;;;;;;5041106;28;20712;-77
2022/12/15 10:16:17;;;;;;;;;;;-0.20;99.90;;;;;;5040601;28;20718;-77
2022/12/15 10:18:48;;;;;;;;;;;-0.20;99.90;;;;;;5042581;28;19940;-77
2022/12/15 10:21:15;;;;;;;;;;;-0.20;99.90;;;;;;5042420;28;19958;-75
2022/12/15 10:23:43;;;;;;;;;;;-0.10;99.90;;;;;;5039359;28;19940;-77
2022/12/15 10:26:18;;;;;;;;;;;-0.20;99.90;;;;;;5040359;28;19975;-76
2022/12/15 10:28:51;;;;;;;;;;;-0.20;99.90;;;;;;5043287;28;20432;-75
2022/12/15 10:31:19;;;;;;;;;;;-0.20;99.90;;;;;;5035634;28;19944;-77
2022/12/15 10:33:50;;;;;;;;;;;-0.20;99.90;;;;;;5037707;28;20125;-77
2022/12/15 10:36:17;;;;;;;;;;;-0.20;99.90;;;;;;5041901;28;20633;-75
2022/12/15 10:38:46;;;;;;;;;;;-0.10;99.90;;;;;;5038731;28;20312;-77
2022/12/15 10:41:15;;;;;;;;;;;-0.10;99.90;;;;;;5041882;28;19940;-75
2022/12/15 10:43:42;;;;;;;;;;;-0.20;99.90;;;;;;5037393;28;19933;-76
2022/12/15 10:46:13;;;;;;;;;;;-0.10;99.90;;;;;;5033843;28;19959;-74
2022/12/15 10:48:42;;;;;;;;;;;-0.10;99.90;;;;;;5035763;28;21298;-77
2022/12/15 10:51:20;;;;;;;;;;;-0.10;99.90;;;;;;5040563;28;20376;-75
2022/12/15 10:53:49;;;;;;;;;;;-0.10;99.90;;;;;;5038421;28;19936;-77
2022/12/15 10:56:19;;;;;;;;;;;-0.10;99.90;;;;;;5037932;28;19928;-77
2022/12/15 10:58:46;;;;;;;;;;;-0.10;99.90;;;;;;5030549;28;19939;-76
2022/12/15 11:01:17;;;;;;;;;;;0.00;99.90;;;;;;5036094;28;19929;-76
2022/12/15 11:03:44;;;;;;;;;;;0.00;99.90;;;;;;5036929;28;19929;-76
2022/12/15 11:06:15;;;;;;;;;;;0.00;99.90;;;;;;5041967;28;19967;-77
2022/12/15 11:08:43;;;;;;;;;;;0.00;99.90;;;;;;5038811;28;19929;-76
2022/12/15 11:14:12;;;;;;;;;;;0.00;99.90;;;;;;5034997;28;21675;-76
2022/12/15 11:16:45;;;;;;;;;;;0.00;99.90;;;;;;5040619;28;19939;-75
2022/12/15 11:19:13;;;;;;;;;;;0.00;99.90;;;;;;5041034;28;19936;-77
2022/12/15 11:21:42;;;;;;;;;;;0.10;99.90;;;;;;5037728;28;20317;-75
2022/12/15 11:24:12;;;;;;;;;;;0.10;99.90;;;;;;5032076;28;19928;-75
2022/12/15 11:26:51;;;;;;;;;;;0.10;99.90;;;;;;5035916;28;19939;-77
2022/12/15 11:29:23;;;;;;;;;;;0.10;99.90;;;;;;5036986;28;20305;-77
2022/12/15 11:31:50;;;;;;;;;;;0.10;99.90;;;;;;5038141;28;19943;-77
2022/12/15 11:34:19;;;;;;;;;;;0.10;99.90;;;;;;5041752;28;20126;-77
2022/12/15 11:36:56;;;;;;;;;;;0.10;99.90;;;;;;5038251;28;19928;-75
2022/12/15 11:39:31;;;;;;;;;;;0.10;99.90;;;;;;5038145;28;19933;-76
2022/12/15 11:42:04;;;;;;;;;;;0.10;99.90;;;;;;5042038;28;19935;-75
2022/12/15 11:44:38;;;;;;;;;;;0.20;99.90;;;;;;5041748;28;19940;-76
2022/12/15 11:47:10;;;;;;;;;;;0.20;99.90;;;;;;5035198;28;19942;-77
2022/12/15 11:49:46;;;;;;;;;;;0.20;99.90;;;;;;5033653;28;20510;-76
2022/12/15 11:52:17;;;;;;;;;;;0.20;99.90;;;;;;5044019;28;19932;-77
2022/12/15 11:54:45;;;;;;;;;;;0.20;99.90;;;;;;5043409;28;19929;-77
2022/12/15 11:57:22;;;;;;;;;;;0.20;99.90;;;;;;5040676;28;20676;-77
2022/12/15 11:59:58;;;;;;;;;;;0.20;99.90;;;;;;5044166;28;20876;-77
2022/12/15 12:02:40;;;;;;;;;;;0.20;99.90;;;;;;5044067;28;19936;-77
2022/12/15 12:05:37;;;;;;;;;;;0.20;99.90;;;;;;5049630;28;19933;-76
2022/12/15 12:08:11;;;;;;;;;;;0.20;99.90;;;;;;5025810;28;19976;-77
2022/12/15 12:10:43;;;;;;;;;;;0.20;99.90;;;;;;5043397;28;19937;-77
2022/12/15 12:13:16;;;;;;;;;;;0.20;99.90;;;;;;5051974;28;19928;-76
2022/12/15 12:15:47;;;;;;;;;;;0.30;99.90;;;;;;5047370;28;19943;-76
2022/12/15 12:18:18;;;;;;;;;;;0.30;99.90;;;;;;5045256;28;19932;-76
2022/12/15 12:20:46;;;;;;;;;;;0.20;99.90;;;;;;5041555;28;19958;-77
2022/12/15 12:23:15;;;;;;;;;;;0.30;99.90;;;;;;5044970;28;20320;-76
2022/12/15 12:25:45;;;;;;;;;;;0.30;99.90;;;;;;5042577;28;19935;-77
2022/12/15 12:28:16;;;;;;;;;;;0.30;99.90;;;;;;5040985;28;19940;-77
2022/12/15 12:30:44;;;;;;;;;;;0.30;99.90;;;;;;5041572;28;20027;-77
2022/12/15 12:33:13;;;;;;;;;;;0.30;99.90;;;;;;5041143;28;19933;-76
2022/12/15 12:35:42;;;;;;;;;;;0.30;99.90;;;;;;5043531;28;20377;-77
2022/12/15 12:38:09;;;;;;;;;;;0.30;99.90;;;;;;5041150;28;19929;-76
2022/12/15 12:40:41;;;;;;;;;;;0.30;99.90;;;;;;5043015;28;19928;-77
2022/12/15 12:43:09;;;;;;;;;;;0.30;99.90;;;;;;5042469;28;19933;-76
2022/12/15 12:45:41;;;;;;;;;;;0.30;99.90;;;;;;5043255;28;19928;-76
2022/12/15 12:48:14;;;;;;;;;;;0.30;99.90;;;;;;5038802;28;19929;-77
2022/12/15 12:50:41;;;;;;;;;;;0.30;99.90;;;;;;5038950;28;19929;-77
2022/12/15 12:53:23;;;;;;;;;;;0.40;99.90;;;;;;5046361;28;19962;-76
2022/12/15 12:55:50;;;;;;;;;;;0.40;99.90;;;;;;5044015;28;19935;-77
2022/12/15 12:58:37;;;;;;;;;;;0.40;99.90;;;;;;5047738;28;19932;-77
2022/12/15 13:01:06;;;;;;;;;;;0.40;99.90;;;;;;5042611;28;19935;-76
2022/12/15 13:03:33;;;;;;;;;;;0.30;99.90;;;;;;5047290;28;19983;-76
2022/12/15 13:06:00;;;;;;;;;;;0.40;99.90;;;;;;5046639;28;19933;-77
2022/12/15 13:08:28;;;;;;;;;;;0.40;99.90;;;;;;5044200;28;19936;-78
2022/12/15 13:10:55;;;;;;;;;;;0.40;99.90;;;;;;5043882;28;21480;-77
2022/12/15 13:13:37;;;;;;;;;;;0.40;99.90;;;;;;5047790;28;19940;-77
2022/12/15 13:16:08;;;;;;;;;;;0.40;99.90;;;;;;5046391;28;21221;-76
2022/12/15 13:18:50;;;;;;;;;;;0.40;99.90;;;;;;5046576;28;19939;-78
2022/12/15 13:21:43;;;;;;;;;;;0.40;99.90;;;;;;5045261;28;19936;-76
2022/12/15 13:24:17;;;;;;;;;;;0.40;99.90;;;;;;5048853;28;19929;-77
2022/12/15 13:26:45;;;;;;;;;;;0.50;99.90;;;;;;5045848;28;19929;-76
2022/12/15 13:29:14;;;;;;;;;;;0.40;99.90;;;;;;5048778;28;19944;-77
2022/12/15 13:31:52;;;;;;;;;;;0.50;99.90;;;;;;5043316;28;19929;-78
2022/12/15 13:34:20;;;;;;;;;;;0.50;99.90;;;;;;5049674;28;19925;-76
2022/12/15 13:36:51;;;;;;;;;;;0.50;99.90;;;;;;5049971;28;19932;-77
2022/12/15 13:39:36;;;;;;;;;;;0.50;99.90;;;;;;5049114;28;19929;-77
2022/12/15 13:42:22;;;;;;;;;;;0.50;99.90;;;;;;5044931;28;20478;-77
2022/12/15 13:44:50;;;;;;;;;;;0.50;99.90;;;;;;5050738;28;19928;-77
2022/12/15 13:47:22;;;;;;;;;;;0.60;99.90;;;;;;5046342;28;20007;-77
2022/12/15 13:49:51;;;;;;;;;;;0.50;99.90;;;;;;5048585;28;20289;-75
2022/12/15 13:52:26;;;;;;;;;;;0.60;99.90;;;;;;5050524;28;19955;-76
2022/12/15 13:54:54;;;;;;;;;;;0.60;99.90;;;;;;5048820;28;19962;-77
2022/12/15 13:57:22;;;;;;;;;;;0.60;99.90;;;;;;5048513;28;19955;-76
2022/12/15 13:59:50;;;;;;;;;;;0.60;99.90;;;;;;5047742;28;19932;-76
2022/12/15 14:02:24;;;;;;;;;;;0.60;99.90;;;;;;5045025;28;20010;-77
2022/12/15 14:05:09;;;;;;;;;;;0.60;99.90;;;;;;5045806;28;20534;-77
2022/12/15 14:07:36;;;;;;;;;;;0.60;99.90;;;;;;5049912;28;20019;-77
2022/12/15 14:10:04;;;;;;;;;;;0.60;99.90;;;;;;5048201;28;19940;-77
2022/12/15 14:12:30;;;;;;;;;;;0.60;99.90;;;;;;5048367;28;19940;-77
2022/12/15 14:14:57;;;;;;;;;;;0.60;99.90;;;;;;5048293;28;19933;-76
2022/12/15 14:17:25;;;;;;;;;;;0.50;99.90;;;;;;5046648;28;19929;-77
2022/12/15 14:19:52;;;;;;;;;;;0.60;99.90;;;;;;5048020;28;19929;-76
2022/12/15 14:22:20;;;;;;;;;;;0.60;99.90;;;;;;5048692;28;19929;-77
2022/12/15 14:24:47;;;;;;;;;;;0.60;99.90;;;;;;5047480;28;19979;-77
2022/12/15 14:27:21;;;;;;;;;;;0.50;99.90;;;;;;5047455;28;19943;-77
2022/12/15 14:29:47;;;;;;;;;;;0.60;99.90;;;;;;5049611;28;19940;-77
2022/12/15 14:32:14;;;;;;;;;;;0.60;99.90;;;;;;5045529;28;19932;-76
2022/12/15 14:34:43;;;;;;;;;;;0.60;99.90;;;;;;5043727;28;19979;-77
2022/12/15 14:37:12;;;;;;;;;;;0.60;99.90;;;;;;5047316;28;20298;-77
2022/12/15 14:39:41;;;;;;;;;;;0.60;99.90;;;;;;5039853;28;19929;-76
2022/12/15 14:42:14;;;;;;;;;;;0.60;99.90;;;;;;5039205;28;19928;-78
2022/12/15 14:44:44;;;;;;;;;;;0.50;99.90;;;;;;5050359;28;19947;-78
2022/12/15 14:47:16;;;;;;;;;;;0.50;99.90;;;;;;5045319;28;19933;-78
2022/12/15 14:49:45;;;;;;;;;;;0.50;99.90;;;;;;5051641;28;19928;-78
2022/12/15 14:52:19;;;;;;;;;;;0.50;99.90;;;;;;5049883;28;19929;-76
2022/12/15 14:54:50;;;;;;;;;;;0.50;99.90;;;;;;5044961;28;19929;-78
2022/12/15 14:57:21;;;;;;;;;;;0.50;99.90;;;;;;5048700;28;19932;-77
2022/12/15 14:59:50;;;;;;;;;;;0.50;99.90;;;;;;5050790;28;19928;-78
2022/12/15 15:02:21;;;;;;;;;;;0.50;99.90;;;;;;5048146;28;19939;-77
2022/12/15 15:04:58;;;;;;;;;;;0.50;99.90;;;;;;5050303;28;19933;-77
2022/12/15 15:07:27;;;;;;;;;;;0.50;99.90;;;;;;5051908;28;19936;-77
2022/12/15 15:09:54;;;;;;;;;;;0.50;99.90;;;;;;5046716;28;19976;-77
2022/12/15 15:12:21;;;;;;;;;;;0.40;99.90;;;;;;5050350;28;19929;-78
2022/12/15 15:14:48;;;;;;;;;;;0.50;99.90;;;;;;5051766;28;20024;-77
2022/12/15 15:17:18;;;;;;;;;;;0.40;99.90;;;;;;5048131;28;19928;-78
2022/12/15 15:19:46;;;;;;;;;;;0.40;99.90;;;;;;5050720;28;19933;-78
2022/12/15 15:22:23;;;;;;;;;;;0.40;99.90;;;;;;5050221;28;19928;-77
2022/12/15 15:24:50;;;;;;;;;;;0.40;99.90;;;;;;5049863;28;19933;-77
2022/12/15 15:27:21;;;;;;;;;;;0.40;99.90;;;;;;5051457;28;20404;-77
2022/12/15 15:29:48;;;;;;;;;;;0.30;99.90;;;;;;5050488;28;19928;-78
2022/12/15 15:32:17;;;;;;;;;;;0.40;99.90;;;;;;5045423;28;19933;-77
2022/12/15 15:34:44;;;;;;;;;;;0.30;99.90;;;;;;5048432;28;19928;-77
2022/12/15 15:37:15;;;;;;;;;;;0.30;99.90;;;;;;5047716;28;19990;-79
2022/12/15 15:39:43;;;;;;;;;;;0.30;99.90;;;;;;5047978;28;20471;-78
2022/12/15 15:42:10;;;;;;;;;;;0.30;99.90;;;;;;5049747;28;19929;-77
2022/12/15 15:44:37;;;;;;;;;;;0.30;99.90;;;;;;5048987;28;19968;-77
2022/12/15 15:47:04;;;;;;;;;;;0.30;99.90;;;;;;5043561;28;19936;-78
2022/12/15 15:49:31;;;;;;;;;;;0.30;99.90;;;;;;5044923;28;20015;-76
2022/12/15 15:51:57;;;;;;;;;;;0.20;99.90;;;;;;5045193;28;20368;-77
2022/12/15 15:54:25;;;;;;;;;;;0.20;99.90;;;;;;5042270;28;20237;-78
2022/12/15 15:56:53;;;;;;;;;;;0.20;99.90;;;;;;5045163;28;19933;-79
2022/12/15 15:59:20;;;;;;;;;;;0.20;99.90;;;;;;5048550;28;19929;-77
2022/12/15 16:01:49;;;;;;;;;;;0.20;99.90;;;;;;5043986;28;20677;-76
2022/12/15 16:04:16;;;;;;;;;;;0.20;99.90;;;;;;5045679;28;20393;-78
2022/12/15 16:06:42;;;;;;;;;;;0.20;99.90;;;;;;5046925;28;19928;-77
2022/12/15 16:09:12;;;;;;;;;;;0.20;99.90;;;;;;5041733;28;19937;-77
2022/12/15 16:11:38;;;;;;;;;;;0.10;99.90;;;;;;5045362;28;19983;-76
2022/12/15 16:14:10;;;;;;;;;;;0.10;99.90;;;;;;5047203;28;19935;-77
2022/12/15 16:16:37;;;;;;;;;;;0.10;99.90;;;;;;5044732;28;19936;-77
2022/12/15 16:19:03;;;;;;;;;;;0.10;99.90;;;;;;5046894;28;19931;-77
2022/12/15 16:21:30;;;;;;;;;;;0.00;99.90;;;;;;5047681;28;20705;-77
2022/12/15 16:23:57;;;;;;;;;;;0.10;99.90;;;;;;5045655;28;20040;-78
2022/12/15 16:26:27;;;;;;;;;;;0.00;99.90;;;;;;5042690;28;19932;-77
2022/12/15 16:28:54;;;;;;;;;;;0.00;99.90;;;;;;5047104;28;19974;-77
2022/12/15 16:31:27;;;;;;;;;;;0.00;99.90;;;;;;5040333;28;19967;-76
2022/12/15 16:33:54;;;;;;;;;;;0.00;99.90;;;;;;5043594;28;19924;-78
2022/12/15 16:36:21;;;;;;;;;;;0.00;99.90;;;;;;5046136;28;19960;-78
2022/12/15 16:38:47;;;;;;;;;;;-0.10;99.90;;;;;;5047450;28;19928;-77
2022/12/15 16:41:15;;;;;;;;;;;0.00;99.90;;;;;;5044306;28;19929;-77
2022/12/15 16:43:43;;;;;;;;;;;-0.10;99.90;;;;;;5046153;28;19929;-77
2022/12/15 16:46:11;;;;;;;;;;;-0.10;99.90;;;;;;5045032;28;20035;-77
2022/12/15 16:48:39;;;;;;;;;;;-0.10;99.90;;;;;;5047248;28;20470;-78
2022/12/15 16:51:06;;;;;;;;;;;-0.10;99.90;;;;;;5049588;28;19933;-77
2022/12/15 16:53:34;;;;;;;;;;;-0.10;99.90;;;;;;5050894;28;19936;-78
2022/12/15 16:56:02;;;;;;;;;;;-0.10;99.90;;;;;;5048059;28;19929;-77
2022/12/15 16:58:29;;;;;;;;;;;-0.10;99.90;;;;;;5048242;28;19940;-78